Latest Weather Observations for Kalumburu

IDD60801

Issued at 7:01 am CST Wednesday 8 July 2015 (issued every 30 minutes, with the page automatically refreshed every 10 minutes)

About weather observations | Map of weather stations | Latest weather observations for NT | Other Formats
Station Details ID: 001019 Name: KALUMBURU Lat: -14.30 Lon: 126.65 Height: 23.0 m
Data from the previous 72 hours. | See also: Recent months at Kalumburu
Date/Time
CST
Temp
°C
App
Temp
°C
Dew
Point
Rel
Hum
%
Delta-T
°C
Wind Press
QNH
hPa
Press
MSL
hPa
Rain
since 9 am
mm
Dir
 
Spd
km/h
Gust
km/h
Spd
kts
Gust
kts
08/07:00am 21.3 23.9 18.5 84 1.8 NW 2 6 1 3 1012.4 1012.3 0.0
08/06:30am 21.0 23.5 18.2 84 1.7 SSE 2 6 1 3 1012.0 1011.9 0.0
08/06:00am 21.1 24.0 18.1 83 1.9 CALM 0 0 0 0 1011.8 1011.7 0.0
08/05:30am 21.2 24.0 18.0 82 2.0 CALM 0 0 0 0 1011.5 1011.4 0.0
08/05:00am 22.1 25.0 18.3 79 2.4 CALM 0 0 0 0 1011.5 1011.4 0.0
08/04:30am 22.4 24.3 18.6 79 2.4 NNW 6 7 3 4 1011.5 1011.4 0.0
08/04:00am 21.7 24.0 18.5 82 2.0 S 4 9 2 5 1011.5 1011.4 0.0
08/03:30am 21.6 24.6 18.4 82 2.0 CALM 0 0 0 0 1011.5 1011.4 0.0
08/03:00am 21.5 24.4 18.1 81 2.1 CALM 0 0 0 0 1011.6 1011.5 0.0
08/02:30am 21.5 24.3 17.9 80 2.2 CALM 0 0 0 0 1012.0 1011.9 0.0
08/02:00am 21.5 24.4 18.3 82 2.0 CALM 0 0 0 0 1012.2 1012.1 0.0
08/01:30am 21.3 24.2 18.1 82 2.0 CALM 0 0 0 0 1012.6 1012.5 0.0
08/01:00am 20.8 23.5 17.8 83 1.9 CALM 0 0 0 0 1012.6 1012.5 0.0
08/12:30am 20.7 23.5 17.9 84 1.7 CALM 0 0 0 0 1012.6 1012.5 0.0
08/12:00am 21.3 24.2 18.1 82 2.0 CALM 0 0 0 0 1012.7 1012.6 0.0
 
Date/Time
CST
Temp
°C
App
Temp
°C
Dew
Point
Rel
Hum
%
Delta-T
°C
Wind Press
QNH
hPa
Press
MSL
hPa
Rain
since 9 am
mm
Dir
 
Spd
km/h
Gust
km/h
Spd
kts
Gust
kts
07/11:30pm 22.6 25.7 18.6 78 2.5 CALM 0 0 0 0 1012.9 1012.8 0.0
07/11:00pm 22.7 25.5 18.0 75 2.9 CALM 0 0 0 0 1013.1 1013.0 0.0
07/10:30pm 24.1 26.0 18.5 71 3.5 NW 6 7 3 4 1013.1 1013.0 0.0
07/10:00pm 24.2 26.4 18.4 70 3.7 NNW 4 9 2 5 1013.1 1013.0 0.0
07/09:30pm 24.5 26.3 18.4 69 3.9 NNW 6 9 3 5 1013.0 1012.9 0.0
07/09:00pm 24.3 25.9 18.2 68 3.8 N 7 11 4 6 1012.7 1012.6 0.0
07/08:30pm 24.6 25.1 18.3 68 4.0 NNE 13 20 7 11 1012.6 1012.5 0.0
07/08:00pm 25.3 25.3 18.0 64 4.6 NNE 15 20 8 11 1012.5 1012.4 0.0
07/07:30pm 26.4 25.5 15.8 52 6.5 NNE 15 26 8 14 1012.2 1012.1 0.0
07/07:00pm 27.0 25.9 15.4 49 7.1 NNE 15 20 8 11 1012.0 1011.9 0.0
07/06:30pm 27.5 26.4 15.2 47 7.5 NNE 15 24 8 13 1011.7 1011.6 0.0
07/06:00pm 28.0 26.4 15.0 45 7.9 NNE 17 24 9 13 1011.1 1011.0 0.0
07/05:30pm 28.9 27.7 13.9 39 9.0 NNE 13 20 7 11 1010.9 1010.8 0.0
07/05:00pm 29.7 27.8 11.7 33 10.4 NE 13 20 7 11 1010.6 1010.5 0.0
07/04:30pm 30.2 28.1 11.2 31 11.0 ENE 13 19 7 10 1010.5 1010.4 0.0
07/04:00pm 30.6 28.9 11.1 30 11.3 NE 11 24 6 13 1010.5 1010.4 0.0
07/03:30pm 30.6 28.6 11.5 30 11.1 ENE 13 22 7 12 1010.7 1010.6 0.0
07/03:00pm 30.6 28.5 11.1 30 11.3 ENE 13 22 7 12 1010.9 1010.8 0.0
07/02:30pm 31.3 29.0 11.7 30 11.5 ENE 15 28 8 15 1011.0 1010.9 0.0
07/02:00pm 31.1 28.6 11.0 29 11.6 E 15 24 8 13 1011.4 1011.3 0.0
07/01:30pm 31.3 29.4 10.6 28 11.9 ENE 11 24 6 13 1011.9 1011.8 0.0
07/01:00pm 30.8 28.2 10.7 29 11.5 E 15 24 8 13 1012.4 1012.3 0.0
07/12:30pm 30.7 27.7 10.6 29 11.5 ENE 17 32 9 17 1012.6 1012.5 0.0
07/12:00pm 31.3 29.0 10.6 28 11.9 ENE 13 28 7 15 1012.9 1012.8 0.0
07/11:30am 30.6 27.6 10.5 29 11.5 E 17 24 9 13 1013.4 1013.3 0.0
07/11:00am 29.9 27.2 8.9 27 11.7 ESE 13 22 7 12 1013.8 1013.7 0.0
07/10:30am 28.0 27.0 11.1 35 9.6 SSW 7 11 4 6 1014.0 1013.9 0.0
07/10:00am 26.4 26.3 13.2 44 7.7 SW 6 9 3 5 1014.1 1014.0 0.0
07/09:30am 24.6 25.9 14.1 52 6.2 CALM 0 0 0 0 1014.0 1013.9 0.0
07/09:00am 23.2 25.1 15.8 63 4.5 CALM 0 0 0 0 1013.7 1013.6 0.0
07/08:30am 21.2 23.0 15.5 70 3.4 CALM 0 0 0 0 1013.4 1013.3 0.0
07/08:00am 20.7 22.3 15.0 70 3.4 CALM 0 0 0 0 1013.3 1013.2 0.0
07/07:30am 20.9 22.5 14.8 68 3.6 CALM 0 0 0 0 1013.0 1012.9 0.0
07/07:00am 20.5 21.9 14.4 68 3.6 CALM 0 0 0 0 1012.6 1012.5 0.0
07/06:30am 20.8 22.2 14.5 67 3.7 CALM 0 0 0 0 1012.3 1012.2 0.0
07/06:00am 20.9 22.3 14.3 66 3.8 CALM 0 0 0 0 1012.1 1012.0 0.0
07/05:30am 21.4 22.2 13.8 62 4.4 W 2 6 1 3 1012.0 1011.9 0.0
07/05:00am 21.6 22.9 14.0 62 4.4 CALM 0 6 0 3 1011.7 1011.6 0.0
07/04:30am 21.7 22.9 13.9 61 4.5 CALM 0 0 0 0 1011.7 1011.6 0.0
07/04:00am 22.2 23.5 14.1 60 4.7 CALM 0 0 0 0 1011.8 1011.7 0.0
07/03:30am 22.5 23.6 13.6 57 5.2 CALM 0 0 0 0 1012.0 1011.9 0.0
07/03:00am 23.3 23.3 13.5 54 5.7 SSE 6 9 3 5 1012.1 1012.0 0.0
07/02:30am 23.2 23.3 13.9 56 5.4 S 6 7 3 4 1012.4 1012.3 0.0
07/02:00am 23.5 23.4 13.4 53 5.9 SSW 6 11 3 6 1012.4 1012.3 0.0
07/01:30am 23.1 23.6 14.9 60 4.9 SSW 6 7 3 4 1012.4 1012.3 0.0
07/01:00am 22.3 24.0 15.2 64 4.2 CALM 0 6 0 3 1012.6 1012.5 0.0
07/12:30am 22.6 23.9 15.2 63 4.4 WSW 2 6 1 3 1012.9 1012.8 0.0
07/12:00am 22.8 24.5 15.1 62 4.6 CALM 0 4 0 2 1013.0 1012.9 0.0
 
Date/Time
CST
Temp
°C
App
Temp
°C
Dew
Point
Rel
Hum
%
Delta-T
°C
Wind Press
QNH
hPa
Press
MSL
hPa
Rain
since 9 am
mm
Dir
 
Spd
km/h
Gust
km/h
Spd
kts
Gust
kts
06/11:30pm 23.1 24.7 14.9 60 4.9 CALM 0 0 0 0 1013.2 1013.1 0.0
06/11:00pm 23.8 24.4 14.2 55 5.7 NE 4 7 2 4 1013.4 1013.3 0.0
06/10:30pm 23.7 25.0 16.2 63 4.6 NNW 4 7 2 4 1013.4 1013.3 0.0
06/10:00pm 23.3 24.1 15.9 63 4.5 N 6 13 3 7 1013.4 1013.3 0.0
06/09:30pm 23.1 24.9 15.4 62 4.6 CALM 0 0 0 0 1013.3 1013.2 0.0
06/09:00pm 23.7 24.9 16.0 62 4.7 WSW 4 7 2 4 1013.0 1012.9 0.0
06/08:30pm 24.3 25.2 15.2 57 5.5 NW 4 7 2 4 1013.0 1012.9 0.0
06/08:00pm 25.0 25.3 15.0 53 6.0 NNW 7 11 4 6 1012.6 1012.5 0.0
06/07:30pm 25.0 25.5 12.9 47 7.0 NNW 2 7 1 4 1012.2 1012.1 0.0
06/07:00pm 26.3 24.7 11.6 40 8.4 NNW 11 15 6 8 1012.1 1012.0 0.0
06/06:30pm 27.1 24.9 9.5 33 9.7 NNW 11 20 6 11 1011.8 1011.7 0.0
06/06:00pm 28.1 25.6 8.4 29 10.7 NNW 11 20 6 11 1011.4 1011.3 0.0
06/05:30pm 29.4 26.8 7.9 26 11.7 NE 11 17 6 9 1011.1 1011.0 0.0
06/05:00pm 30.3 28.0 7.5 24 12.4 ENE 9 22 5 12 1010.9 1010.8 0.0
06/04:30pm 31.3 28.8 8.3 24 12.7 SE 11 17 6 9 1010.9 1010.8 0.0
06/04:00pm 31.5 28.5 7.9 23 13.0 ENE 13 19 7 10 1011.0 1010.9 0.0
06/03:30pm 30.6 28.2 7.1 23 12.7 ESE 9 19 5 10 1011.2 1011.1 0.0
06/03:00pm 30.8 27.4 6.0 21 13.2 NE 13 20 7 11 1011.5 1011.4 0.0
06/02:30pm 30.4 26.7 6.3 22 12.9 ENE 15 28 8 15 1011.8 1011.7 0.0
06/02:00pm 30.7 26.9 5.9 21 13.2 ESE 15 28 8 15 1012.1 1012.0 0.0
06/01:30pm 30.3 27.2 5.6 21 13.0 SE 11 22 6 12 1012.7 1012.6 0.0
06/01:00pm 29.2 25.5 4.6 21 12.7 SE 13 19 7 10 1013.5 1013.4 0.0
06/12:30pm 29.0 24.6 4.5 21 12.6 SE 17 33 9 18 1014.0 1013.9 0.0
06/12:00pm 28.0 24.4 5.0 23 11.8 SSE 13 24 7 13 1014.4 1014.3 0.0
06/11:30am 28.0 24.2 3.7 21 12.2 SE 13 24 7 13 1014.9 1014.8 0.0
06/11:00am 25.4 23.1 7.5 32 9.5 S 9 13 5 7 1015.3 1015.2 0.0
06/10:30am 23.7 21.7 8.5 38 8.1 S 9 15 5 8 1015.5 1015.4 0.0
06/10:00am 21.7 20.8 10.8 50 6.0 S 6 9 3 5 1015.7 1015.6 0.0
06/09:30am 19.8 18.9 10.5 55 5.0 SSE 6 9 3 5 1015.6 1015.5 0.0
06/09:00am 17.9 16.6 9.8 59 4.3 SSE 7 11 4 6 1015.4 1015.3 0.0
06/08:30am 16.0 14.8 9.7 66 3.3 S 6 11 3 6 1015.1 1015.0 0.0
06/08:00am 14.9 13.4 9.3 69 2.9 S 7 11 4 6 1014.8 1014.7 0.0
06/07:30am 14.6 13.0 8.8 68 2.9 SSW 7 11 4 6 1014.5 1014.4 0.0
06/07:00am 12.1 10.7 8.8 80 1.6 SSE 6 7 3 4 1014.1 1014.0 0.0
06/06:30am 10.5 9.3 8.1 85 1.2 SSW 4 7 2 4 1013.7 1013.6 0.0
06/06:00am 10.7 10.4 8.5 86 1.1 CALM 0 0 0 0 1013.7 1013.6 0.0
06/05:30am 10.1 9.6 7.7 85 1.2 CALM 0 0 0 0 1013.5 1013.4 0.0
06/05:00am 10.0 9.0 7.4 84 1.2 S 2 7 1 4 1013.4 1013.3 0.0
06/04:30am 10.6 9.3 7.8 83 1.4 S 4 7 2 4 1013.2 1013.1 0.0
06/04:00am 10.1 9.6 7.9 86 1.1 CALM 0 0 0 0 1013.1 1013.0 0.0
06/03:30am 10.5 10.1 8.1 85 1.2 CALM 0 0 0 0 1013.2 1013.1 0.0
06/03:00am 10.7 10.3 8.3 85 1.2 CALM 0 0 0 0 1013.4 1013.3 0.0
06/02:30am 10.7 10.2 7.8 82 1.4 CALM 0 0 0 0 1013.6 1013.5 0.0
06/02:00am 11.3 11.0 8.5 83 1.4 CALM 0 0 0 0 1013.8 1013.7 0.0
06/01:30am 11.5 11.2 8.5 82 1.5 CALM 0 0 0 0 1013.9 1013.8 0.0
06/01:00am 12.2 11.9 8.7 79 1.7 CALM 0 0 0 0 1014.1 1014.0 0.0
06/12:30am 12.3 12.0 8.6 78 1.8 CALM 0 0 0 0 1014.0 1013.9 0.0
06/12:00am 12.6 12.2 8.1 74 2.2 CALM 0 6 0 3 1014.2 1014.1 0.0
 
Date/Time
CST
Temp
°C
App
Temp
°C
Dew
Point
Rel
Hum
%
Delta-T
°C
Wind Press
QNH
hPa
Press
MSL
hPa
Rain
since 9 am
mm
Dir
 
Spd
km/h
Gust
km/h
Spd
kts
Gust
kts
05/11:30pm 13.8 13.7 9.3 74 2.3 CALM 0 0 0 0 1014.3 1014.2 0.0
05/11:00pm 14.2 14.0 9.0 71 2.6 CALM 0 0 0 0 1014.4 1014.3 0.0
05/10:30pm 14.6 14.5 9.6 72 2.6 CALM 0 0 0 0 1014.4 1014.3 0.0
05/10:00pm 15.5 15.3 9.2 66 3.2 CALM 0 0 0 0 1014.5 1014.4 0.0
05/09:30pm 16.2 16.0 9.2 63 3.6 CALM 0 0 0 0 1014.4 1014.3 0.0
05/09:00pm 18.3 18.1 9.1 55 4.8 CALM 0 0 0 0 1014.1 1014.0 0.0
05/08:30pm 19.2 18.8 8.2 49 5.7 CALM 0 0 0 0 1013.8 1013.7 0.0
05/08:00pm 22.8 21.0 8.1 39 7.7 NNW 7 11 4 6 1013.5 1013.4 0.0
05/07:30pm 24.0 21.5 6.7 33 9.0 NNW 9 13 5 7 1013.3 1013.2 0.0
05/07:00pm 25.0 22.0 6.2 30 9.7 N 11 19 6 10 1012.9 1012.8 0.0
05/06:30pm 26.5 23.8 5.5 26 10.8 NNW 9 19 5 10 1012.7 1012.6 0.0
05/06:00pm 27.7 24.2 5.3 24 11.6 N 13 20 7 11 1012.3 1012.2 0.0
05/05:30pm 29.0 25.8 7.0 25 11.8 NNW 13 20 7 11 1012.2 1012.1 0.0
05/05:00pm 28.8 24.4 5.0 22 12.3 N 17 26 9 14 1012.2 1012.1 0.0
05/04:30pm 30.3 26.0 3.4 18 13.7 NNW 15 22 8 12 1012.1 1012.0 0.0
05/04:00pm 30.4 26.1 3.4 18 13.7 NNW 15 20 8 11 1012.1 1012.0 0.0
05/03:30pm 30.7 27.7 2.0 16 14.3 NNE 7 19 4 10 1012.5 1012.4 0.0
05/03:00pm 30.5 27.2 0.0 14 14.6 ESE 7 15 4 8 1012.8 1012.7 0.0
05/02:30pm 31.0 28.2 2.3 16 14.4 WSW 6 13 3 7 1013.2 1013.1 0.0
05/02:00pm 30.4 26.1 0.9 15 14.4 NE 13 20 7 11 1013.8 1013.7 0.0
05/01:30pm 30.7 26.6 2.0 16 14.3 NNE 13 19 7 10 1014.3 1014.2 0.0
05/01:00pm 29.9 25.9 0.5 15 14.2 ENE 11 19 6 10 1014.8 1014.7 0.0
05/12:30pm 29.3 25.1 1.7 17 13.5 ESE 13 20 7 11 1015.3 1015.2 0.0
05/12:00pm 28.5 24.7 1.9 18 13.0 ESE 11 20 6 11 1015.8 1015.7 0.0
05/11:30am 27.7 23.6 2.0 19 12.5 ESE 13 19 7 10 1016.3 1016.2 0.0
05/11:00am 26.7 23.0 2.6 21 11.8 ESE 11 20 6 11 1016.6 1016.5 0.0
05/10:30am 26.3 23.5 2.9 22 11.5 SSE 7 13 4 7 1016.7 1016.6 -
05/10:00am 23.8 21.0 7.0 34 8.7 S 11 15 6 8 1016.8 1016.7 -
05/09:30am 21.9 20.8 9.8 46 6.5 S 6 7 3 4 1016.9 1016.8 -
05/09:00am 19.0 19.2 11.8 63 4.0 SSE 2 6 1 3 1016.9 1016.8 -

Other Formats:

Comma delimited format used in spreadsheet applications
http://www.bom.gov.au/fwo/IDD60801/IDD60801.94100.axf

JavaScript Object Notation format (JSON) in row-major order
http://www.bom.gov.au/fwo/IDD60801/IDD60801.94100.json